sensor_id;sensor_type;location;lat;lon;timestamp;temperature;humidity
26224;DHT22;14820;48.682;8.890;2023-04-24T00:01:41;10.60;99.90
26224;DHT22;14820;48.682;8.890;2023-04-24T00:04:08;10.60;99.90
26224;DHT22;14820;48.682;8.890;2023-04-24T00:06:36;10.70;99.90
26224;DHT22;14820;48.682;8.890;2023-04-24T00:09:03;10.70;99.90
26224;DHT22;14820;48.682;8.890;2023-04-24T00:11:29;10.70;99.90
26224;DHT22;14820;48.682;8.890;2023-04-24T00:13:55;10.70;99.90
26224;DHT22;14820;48.682;8.890;2023-04-24T00:16:22;10.70;99.90
26224;DHT22;14820;48.682;8.890;2023-04-24T00:18:47;10.70;99.90
26224;DHT22;14820;48.682;8.890;2023-04-24T00:21:14;10.70;99.90
26224;DHT22;14820;48.682;8.890;2023-04-24T00:23:41;10.70;99.90
26224;DHT22;14820;48.682;8.890;2023-04-24T00:26:07;10.70;99.90
26224;DHT22;14820;48.682;8.890;2023-04-24T00:28:33;10.70;99.90
26224;DHT22;14820;48.682;8.890;2023-04-24T00:30:59;10.80;99.90
26224;DHT22;14820;48.682;8.890;2023-04-24T00:33:24;10.70;99.90
26224;DHT22;14820;48.682;8.890;2023-04-24T00:35:50;10.70;99.90
26224;DHT22;14820;48.682;8.890;2023-04-24T00:38:15;10.70;99.90
26224;DHT22;14820;48.682;8.890;2023-04-24T00:40:41;10.60;99.90
26224;DHT22;14820;48.682;8.890;2023-04-24T00:43:07;10.70;99.90
26224;DHT22;14820;48.682;8.890;2023-04-24T00:45:33;10.70;99.90
26224;DHT22;14820;48.682;8.890;2023-04-24T00:48:00;10.60;99.90
26224;DHT22;14820;48.682;8.890;2023-04-24T00:50:26;10.60;99.90
26224;DHT22;14820;48.682;8.890;2023-04-24T00:52:52;10.60;99.90
26224;DHT22;14820;48.682;8.890;2023-04-24T00:55:18;10.60;99.90
26224;DHT22;14820;48.682;8.890;2023-04-24T00:57:44;10.60;99.90
26224;DHT22;14820;48.682;8.890;2023-04-24T01:00:11;10.60;99.90
26224;DHT22;14820;48.682;8.890;2023-04-24T01:02:41;10.60;99.90
26224;DHT22;14820;48.682;8.890;2023-04-24T01:05:11;10.60;99.90
26224;DHT22;14820;48.682;8.890;2023-04-24T01:07:39;10.60;99.90
26224;DHT22;14820;48.682;8.890;2023-04-24T01:10:05;10.50;99.90
26224;DHT22;14820;48.682;8.890;2023-04-24T01:12:32;10.50;99.90
26224;DHT22;14820;48.682;8.890;2023-04-24T01:14:57;10.50;99.90
26224;DHT22;14820;48.682;8.890;2023-04-24T01:17:23;10.60;99.90
26224;DHT22;14820;48.682;8.890;2023-04-24T01:19:49;10.60;99.90
26224;DHT22;14820;48.682;8.890;2023-04-24T01:22:15;10.50;99.90
26224;DHT22;14820;48.682;8.890;2023-04-24T01:24:42;10.50;99.90
26224;DHT22;14820;48.682;8.890;2023-04-24T01:27:09;10.50;99.90
26224;DHT22;14820;48.682;8.890;2023-04-24T01:29:36;10.40;99.90
26224;DHT22;14820;48.682;8.890;2023-04-24T01:32:03;10.50;99.90
26224;DHT22;14820;48.682;8.890;2023-04-24T01:34:29;10.40;99.90
26224;DHT22;14820;48.682;8.890;2023-04-24T01:36:55;10.40;99.90
26224;DHT22;14820;48.682;8.890;2023-04-24T01:39:22;10.50;99.90
26224;DHT22;14820;48.682;8.890;2023-04-24T01:41:48;10.50;99.90
26224;DHT22;14820;48.682;8.890;2023-04-24T01:44:15;10.40;99.90
26224;DHT22;14820;48.682;8.890;2023-04-24T01:46:41;10.30;99.90
26224;DHT22;14820;48.682;8.890;2023-04-24T01:49:07;10.30;99.90
26224;DHT22;14820;48.682;8.890;2023-04-24T01:51:33;10.20;99.90
26224;DHT22;14820;48.682;8.890;2023-04-24T01:53:58;10.20;99.90
26224;DHT22;14820;48.682;8.890;2023-04-24T01:56:25;10.20;99.90
26224;DHT22;14820;48.682;8.890;2023-04-24T01:58:52;10.10;99.90
26224;DHT22;14820;48.682;8.890;2023-04-24T02:01:23;10.10;99.90
26224;DHT22;14820;48.682;8.890;2023-04-24T02:03:49;10.10;99.90
26224;DHT22;14820;48.682;8.890;2023-04-24T02:06:15;10.20;99.90
26224;DHT22;14820;48.682;8.890;2023-04-24T02:08:41;10.20;99.90
26224;DHT22;14820;48.682;8.890;2023-04-24T02:11:09;10.30;99.90
26224;DHT22;14820;48.682;8.890;2023-04-24T02:13:34;10.30;99.90
26224;DHT22;14820;48.682;8.890;2023-04-24T02:16:00;10.30;99.90
26224;DHT22;14820;48.682;8.890;2023-04-24T02:18:26;10.30;99.90
26224;DHT22;14820;48.682;8.890;2023-04-24T02:20:52;10.20;99.90
26224;DHT22;14820;48.682;8.890;2023-04-24T02:23:17;10.20;99.90
26224;DHT22;14820;48.682;8.890;2023-04-24T02:25:43;10.20;99.90
26224;DHT22;14820;48.682;8.890;2023-04-24T02:28:09;10.20;99.90
26224;DHT22;14820;48.682;8.890;2023-04-24T02:30:34;10.20;99.90
26224;DHT22;14820;48.682;8.890;2023-04-24T02:33:00;10.20;99.90
26224;DHT22;14820;48.682;8.890;2023-04-24T02:35:26;10.10;99.90
26224;DHT22;14820;48.682;8.890;2023-04-24T02:37:52;10.10;99.90
26224;DHT22;14820;48.682;8.890;2023-04-24T02:40:17;10.10;99.90
26224;DHT22;14820;48.682;8.890;2023-04-24T02:42:43;10.10;99.90
26224;DHT22;14820;48.682;8.890;2023-04-24T02:45:09;10.10;99.90
26224;DHT22;14820;48.682;8.890;2023-04-24T02:47:35;10.10;99.90
26224;DHT22;14820;48.682;8.890;2023-04-24T02:50:01;10.00;99.90
26224;DHT22;14820;48.682;8.890;2023-04-24T02:52:28;10.00;99.90
26224;DHT22;14820;48.682;8.890;2023-04-24T02:54:53;10.00;99.90
26224;DHT22;14820;48.682;8.890;2023-04-24T02:57:19;10.10;99.90
26224;DHT22;14820;48.682;8.890;2023-04-24T02:59:45;10.10;99.90
26224;DHT22;14820;48.682;8.890;2023-04-24T03:02:10;10.00;99.90
26224;DHT22;14820;48.682;8.890;2023-04-24T03:04:36;10.00;99.90
26224;DHT22;14820;48.682;8.890;2023-04-24T03:07:02;10.00;99.90
26224;DHT22;14820;48.682;8.890;2023-04-24T03:09:27;10.00;99.90
26224;DHT22;14820;48.682;8.890;2023-04-24T03:11:53;10.00;99.90
26224;DHT22;14820;48.682;8.890;2023-04-24T03:14:19;10.00;99.90
26224;DHT22;14820;48.682;8.890;2023-04-24T03:16:44;10.00;99.90
26224;DHT22;14820;48.682;8.890;2023-04-24T03:19:10;10.00;99.90
26224;DHT22;14820;48.682;8.890;2023-04-24T03:21:36;10.00;99.90
26224;DHT22;14820;48.682;8.890;2023-04-24T03:24:09;10.00;99.90
26224;DHT22;14820;48.682;8.890;2023-04-24T03:26:35;9.90;99.90
26224;DHT22;14820;48.682;8.890;2023-04-24T03:29:01;9.90;99.90
26224;DHT22;14820;48.682;8.890;2023-04-24T03:31:27;9.80;99.90
26224;DHT22;14820;48.682;8.890;2023-04-24T03:33:52;9.90;99.90
26224;DHT22;14820;48.682;8.890;2023-04-24T03:36:18;9.90;99.90
26224;DHT22;14820;48.682;8.890;2023-04-24T03:38:45;9.90;99.90
26224;DHT22;14820;48.682;8.890;2023-04-24T03:41:12;9.80;99.90
26224;DHT22;14820;48.682;8.890;2023-04-24T03:43:38;9.80;99.90
26224;DHT22;14820;48.682;8.890;2023-04-24T03:46:04;9.80;99.90
26224;DHT22;14820;48.682;8.890;2023-04-24T03:48:30;9.90;99.90
26224;DHT22;14820;48.682;8.890;2023-04-24T03:50:56;9.90;99.90
26224;DHT22;14820;48.682;8.890;2023-04-24T03:53:21;9.90;99.90
26224;DHT22;14820;48.682;8.890;2023-04-24T03:55:47;9.90;99.90
26224;DHT22;14820;48.682;8.890;2023-04-24T03:58:13;9.90;99.90
26224;DHT22;14820;48.682;8.890;2023-04-24T04:00:43;9.90;99.90
26224;DHT22;14820;48.682;8.890;2023-04-24T04:03:09;9.80;99.90
26224;DHT22;14820;48.682;8.890;2023-04-24T04:05:35;9.80;99.90
26224;DHT22;14820;48.682;8.890;2023-04-24T04:08:01;9.80;99.90
26224;DHT22;14820;48.682;8.890;2023-04-24T04:10:26;9.70;99.90
26224;DHT22;14820;48.682;8.890;2023-04-24T04:12:52;9.70;99.90
26224;DHT22;14820;48.682;8.890;2023-04-24T04:15:18;9.60;99.90
26224;DHT22;14820;48.682;8.890;2023-04-24T04:17:43;9.60;99.90
26224;DHT22;14820;48.682;8.890;2023-04-24T04:20:09;9.50;99.90
26224;DHT22;14820;48.682;8.890;2023-04-24T04:22:36;9.40;99.90
26224;DHT22;14820;48.682;8.890;2023-04-24T04:25:02;9.20;99.90
26224;DHT22;14820;48.682;8.890;2023-04-24T04:27:28;9.10;99.90
26224;DHT22;14820;48.682;8.890;2023-04-24T04:29:58;9.00;99.90
26224;DHT22;14820;48.682;8.890;2023-04-24T04:32:24;8.80;99.90
26224;DHT22;14820;48.682;8.890;2023-04-24T04:34:51;8.80;99.90
26224;DHT22;14820;48.682;8.890;2023-04-24T04:37:18;8.70;99.90
26224;DHT22;14820;48.682;8.890;2023-04-24T04:39:44;8.60;99.90
26224;DHT22;14820;48.682;8.890;2023-04-24T04:42:10;8.60;99.90
26224;DHT22;14820;48.682;8.890;2023-04-24T04:44:36;8.60;99.90
26224;DHT22;14820;48.682;8.890;2023-04-24T04:47:02;8.60;99.90
26224;DHT22;14820;48.682;8.890;2023-04-24T04:49:31;8.60;99.90
26224;DHT22;14820;48.682;8.890;2023-04-24T04:51:57;8.60;99.90
26224;DHT22;14820;48.682;8.890;2023-04-24T04:54:22;8.70;99.90
26224;DHT22;14820;48.682;8.890;2023-04-24T04:56:50;8.60;99.90
26224;DHT22;14820;48.682;8.890;2023-04-24T04:59:16;8.60;99.90
26224;DHT22;14820;48.682;8.890;2023-04-24T05:01:41;8.60;99.90
26224;DHT22;14820;48.682;8.890;2023-04-24T05:04:07;8.60;99.90
26224;DHT22;14820;48.682;8.890;2023-04-24T05:06:33;8.60;99.90
26224;DHT22;14820;48.682;8.890;2023-04-24T05:08:59;8.60;99.90
26224;DHT22;14820;48.682;8.890;2023-04-24T05:11:24;8.60;99.90
26224;DHT22;14820;48.682;8.890;2023-04-24T05:13:50;8.60;99.90
26224;DHT22;14820;48.682;8.890;2023-04-24T05:16:16;8.50;99.90
26224;DHT22;14820;48.682;8.890;2023-04-24T05:18:41;8.60;99.90
26224;DHT22;14820;48.682;8.890;2023-04-24T05:21:07;8.60;99.90
26224;DHT22;14820;48.682;8.890;2023-04-24T05:23:32;8.50;99.90
26224;DHT22;14820;48.682;8.890;2023-04-24T05:25:58;8.50;99.90
26224;DHT22;14820;48.682;8.890;2023-04-24T05:28:24;8.60;99.90
26224;DHT22;14820;48.682;8.890;2023-04-24T05:30:54;8.60;99.90
26224;DHT22;14820;48.682;8.890;2023-04-24T05:33:22;8.60;99.90
26224;DHT22;14820;48.682;8.890;2023-04-24T05:35:48;8.60;99.90
26224;DHT22;14820;48.682;8.890;2023-04-24T05:38:14;8.60;99.90
26224;DHT22;14820;48.682;8.890;2023-04-24T05:40:42;8.60;99.90
26224;DHT22;14820;48.682;8.890;2023-04-24T05:43:08;8.60;99.90
26224;DHT22;14820;48.682;8.890;2023-04-24T05:45:34;8.60;99.90
26224;DHT22;14820;48.682;8.890;2023-04-24T05:48:02;8.60;99.90
26224;DHT22;14820;48.682;8.890;2023-04-24T05:50:27;8.60;99.90
26224;DHT22;14820;48.682;8.890;2023-04-24T05:52:53;8.60;99.90
26224;DHT22;14820;48.682;8.890;2023-04-24T05:55:19;8.60;99.90
26224;DHT22;14820;48.682;8.890;2023-04-24T05:57:45;8.70;99.90
26224;DHT22;14820;48.682;8.890;2023-04-24T06:00:13;8.70;99.90
26224;DHT22;14820;48.682;8.890;2023-04-24T06:02:38;8.80;99.90
26224;DHT22;14820;48.682;8.890;2023-04-24T06:05:04;8.90;99.90
26224;DHT22;14820;48.682;8.890;2023-04-24T06:07:31;9.00;99.90
26224;DHT22;14820;48.682;8.890;2023-04-24T06:09:56;9.00;99.90
26224;DHT22;14820;48.682;8.890;2023-04-24T06:12:22;9.10;99.90
26224;DHT22;14820;48.682;8.890;2023-04-24T06:14:49;9.20;99.90
26224;DHT22;14820;48.682;8.890;2023-04-24T06:17:17;9.20;99.90
26224;DHT22;14820;48.682;8.890;2023-04-24T06:19:43;9.30;99.90
26224;DHT22;14820;48.682;8.890;2023-04-24T06:22:08;9.30;99.90
26224;DHT22;14820;48.682;8.890;2023-04-24T06:24:34;9.30;99.90
26224;DHT22;14820;48.682;8.890;2023-04-24T06:27:00;9.40;99.90
26224;DHT22;14820;48.682;8.890;2023-04-24T06:29:26;9.50;99.90
26224;DHT22;14820;48.682;8.890;2023-04-24T06:31:52;9.50;99.90
26224;DHT22;14820;48.682;8.890;2023-04-24T06:34:18;9.60;99.90
26224;DHT22;14820;48.682;8.890;2023-04-24T06:36:44;9.60;99.90
26224;DHT22;14820;48.682;8.890;2023-04-24T06:39:09;9.70;99.90
26224;DHT22;14820;48.682;8.890;2023-04-24T06:41:35;9.80;99.90
26224;DHT22;14820;48.682;8.890;2023-04-24T06:44:01;9.80;99.90
26224;DHT22;14820;48.682;8.890;2023-04-24T06:46:26;9.80;99.90
26224;DHT22;14820;48.682;8.890;2023-04-24T06:48:53;9.70;99.90
26224;DHT22;14820;48.682;8.890;2023-04-24T06:51:25;9.60;99.90
26224;DHT22;14820;48.682;8.890;2023-04-24T06:53:53;9.60;99.90
26224;DHT22;14820;48.682;8.890;2023-04-24T06:56:19;9.60;99.90
26224;DHT22;14820;48.682;8.890;2023-04-24T06:58:45;9.60;99.90
26224;DHT22;14820;48.682;8.890;2023-04-24T07:01:11;9.50;99.90
26224;DHT22;14820;48.682;8.890;2023-04-24T07:03:37;9.40;99.90
26224;DHT22;14820;48.682;8.890;2023-04-24T07:06:03;9.30;99.90
26224;DHT22;14820;48.682;8.890;2023-04-24T07:08:29;9.20;99.90
26224;DHT22;14820;48.682;8.890;2023-04-24T07:10:59;9.10;99.90
26224;DHT22;14820;48.682;8.890;2023-04-24T07:13:25;9.10;99.90
26224;DHT22;14820;48.682;8.890;2023-04-24T07:15:51;9.10;99.90
26224;DHT22;14820;48.682;8.890;2023-04-24T07:18:20;9.10;99.90
26224;DHT22;14820;48.682;8.890;2023-04-24T07:20:46;9.20;99.90
26224;DHT22;14820;48.682;8.890;2023-04-24T07:23:12;9.30;99.90
26224;DHT22;14820;48.682;8.890;2023-04-24T07:25:37;9.40;99.90
26224;DHT22;14820;48.682;8.890;2023-04-24T07:28:04;9.40;99.90
26224;DHT22;14820;48.682;8.890;2023-04-24T07:30:30;9.50;99.90
26224;DHT22;14820;48.682;8.890;2023-04-24T07:32:58;9.50;99.90
26224;DHT22;14820;48.682;8.890;2023-04-24T07:35:24;9.60;99.90
26224;DHT22;14820;48.682;8.890;2023-04-24T07:37:52;9.50;99.90
26224;DHT22;14820;48.682;8.890;2023-04-24T07:40:18;9.60;99.90
26224;DHT22;14820;48.682;8.890;2023-04-24T07:42:44;9.60;99.90
26224;DHT22;14820;48.682;8.890;2023-04-24T07:45:09;9.60;99.90
26224;DHT22;14820;48.682;8.890;2023-04-24T07:47:35;9.60;99.90
26224;DHT22;14820;48.682;8.890;2023-04-24T07:50:03;9.70;99.90
26224;DHT22;14820;48.682;8.890;2023-04-24T07:52:28;9.70;99.90
26224;DHT22;14820;48.682;8.890;2023-04-24T07:54:55;9.80;99.90
26224;DHT22;14820;48.682;8.890;2023-04-24T07:57:24;9.80;99.90
26224;DHT22;14820;48.682;8.890;2023-04-24T07:59:50;9.80;99.90
26224;DHT22;14820;48.682;8.890;2023-04-24T08:02:16;9.80;99.90
26224;DHT22;14820;48.682;8.890;2023-04-24T08:04:42;9.90;99.90
26224;DHT22;14820;48.682;8.890;2023-04-24T08:07:07;9.80;99.90
26224;DHT22;14820;48.682;8.890;2023-04-24T08:09:33;9.80;99.90
26224;DHT22;14820;48.682;8.890;2023-04-24T08:11:59;9.80;99.90
26224;DHT22;14820;48.682;8.890;2023-04-24T08:14:25;9.80;99.90
26224;DHT22;14820;48.682;8.890;2023-04-24T08:16:53;9.90;99.90
26224;DHT22;14820;48.682;8.890;2023-04-24T08:19:19;9.90;99.90
26224;DHT22;14820;48.682;8.890;2023-04-24T08:21:45;9.90;99.90
26224;DHT22;14820;48.682;8.890;2023-04-24T08:24:10;9.90;99.90
26224;DHT22;14820;48.682;8.890;2023-04-24T08:26:36;9.90;99.90
26224;DHT22;14820;48.682;8.890;2023-04-24T08:29:02;9.80;99.90
26224;DHT22;14820;48.682;8.890;2023-04-24T08:31:28;9.70;99.90
26224;DHT22;14820;48.682;8.890;2023-04-24T08:33:53;9.70;99.90
26224;DHT22;14820;48.682;8.890;2023-04-24T08:36:19;9.70;99.90
26224;DHT22;14820;48.682;8.890;2023-04-24T08:38:45;9.60;99.90
26224;DHT22;14820;48.682;8.890;2023-04-24T08:41:14;9.60;99.90
26224;DHT22;14820;48.682;8.890;2023-04-24T08:43:41;9.70;99.90
26224;DHT22;14820;48.682;8.890;2023-04-24T08:46:07;9.80;99.90
26224;DHT22;14820;48.682;8.890;2023-04-24T08:48:34;9.80;99.90
26224;DHT22;14820;48.682;8.890;2023-04-24T08:51:00;10.00;99.90
26224;DHT22;14820;48.682;8.890;2023-04-24T08:53:27;10.10;99.90
26224;DHT22;14820;48.682;8.890;2023-04-24T08:55:54;10.10;99.90
26224;DHT22;14820;48.682;8.890;2023-04-24T08:58:20;10.20;99.90
26224;DHT22;14820;48.682;8.890;2023-04-24T09:00:47;10.20;99.90
26224;DHT22;14820;48.682;8.890;2023-04-24T09:03:15;10.20;99.90
26224;DHT22;14820;48.682;8.890;2023-04-24T09:05:46;10.20;99.90
26224;DHT22;14820;48.682;8.890;2023-04-24T09:08:13;10.40;99.90
26224;DHT22;14820;48.682;8.890;2023-04-24T09:10:40;10.60;99.90
26224;DHT22;14820;48.682;8.890;2023-04-24T09:13:10;10.60;99.90
26224;DHT22;14820;48.682;8.890;2023-04-24T09:15:38;10.60;99.90
26224;DHT22;14820;48.682;8.890;2023-04-24T09:18:04;10.60;99.90
26224;DHT22;14820;48.682;8.890;2023-04-24T09:20:31;10.70;99.90
26224;DHT22;14820;48.682;8.890;2023-04-24T09:22:58;10.60;99.90
26224;DHT22;14820;48.682;8.890;2023-04-24T09:25:42;10.70;99.90
26224;DHT22;14820;48.682;8.890;2023-04-24T09:28:07;10.70;99.90
26224;DHT22;14820;48.682;8.890;2023-04-24T09:30:33;10.60;99.90
26224;DHT22;14820;48.682;8.890;2023-04-24T09:35:40;10.70;99.90
26224;DHT22;14820;48.682;8.890;2023-04-24T09:38:10;10.80;99.90
26224;DHT22;14820;48.682;8.890;2023-04-24T09:40:36;10.80;99.90
26224;DHT22;14820;48.682;8.890;2023-04-24T09:43:02;10.70;99.90
26224;DHT22;14820;48.682;8.890;2023-04-24T09:45:35;10.60;99.90
26224;DHT22;14820;48.682;8.890;2023-04-24T09:48:01;10.60;99.90
26224;DHT22;14820;48.682;8.890;2023-04-24T09:50:27;10.70;99.90
26224;DHT22;14820;48.682;8.890;2023-04-24T09:52:57;10.80;99.90
26224;DHT22;14820;48.682;8.890;2023-04-24T09:55:24;10.70;99.90
26224;DHT22;14820;48.682;8.890;2023-04-24T09:57:53;10.80;99.90
26224;DHT22;14820;48.682;8.890;2023-04-24T10:00:30;10.90;99.90
26224;DHT22;14820;48.682;8.890;2023-04-24T10:02:58;11.00;99.90
26224;DHT22;14820;48.682;8.890;2023-04-24T10:05:28;11.20;99.90
26224;DHT22;14820;48.682;8.890;2023-04-24T10:08:13;11.10;99.90
26224;DHT22;14820;48.682;8.890;2023-04-24T10:10:41;11.00;99.90
26224;DHT22;14820;48.682;8.890;2023-04-24T10:13:08;10.90;99.90
26224;DHT22;14820;48.682;8.890;2023-04-24T10:15:34;11.10;99.90
26224;DHT22;14820;48.682;8.890;2023-04-24T10:18:00;11.20;99.90
26224;DHT22;14820;48.682;8.890;2023-04-24T10:20:29;11.20;99.90
26224;DHT22;14820;48.682;8.890;2023-04-24T10:22:56;11.10;99.90
26224;DHT22;14820;48.682;8.890;2023-04-24T10:25:24;11.00;99.90
26224;DHT22;14820;48.682;8.890;2023-04-24T10:27:51;10.90;99.90
26224;DHT22;14820;48.682;8.890;2023-04-24T10:30:20;11.00;99.90
26224;DHT22;14820;48.682;8.890;2023-04-24T10:32:45;10.90;99.90
26224;DHT22;14820;48.682;8.890;2023-04-24T10:35:15;10.80;99.90
26224;DHT22;14820;48.682;8.890;2023-04-24T10:37:46;10.70;99.90
26224;DHT22;14820;48.682;8.890;2023-04-24T10:40:24;10.70;99.90
26224;DHT22;14820;48.682;8.890;2023-04-24T10:42:52;10.90;99.90
26224;DHT22;14820;48.682;8.890;2023-04-24T10:45:20;11.00;99.90
26224;DHT22;14820;48.682;8.890;2023-04-24T10:47:57;11.20;99.90
26224;DHT22;14820;48.682;8.890;2023-04-24T10:50:26;11.30;99.90
26224;DHT22;14820;48.682;8.890;2023-04-24T10:52:53;11.40;99.90
26224;DHT22;14820;48.682;8.890;2023-04-24T10:55:39;11.60;99.90
26224;DHT22;14820;48.682;8.890;2023-04-24T10:58:05;11.90;99.90
26224;DHT22;14820;48.682;8.890;2023-04-24T11:00:30;11.90;99.90
26224;DHT22;14820;48.682;8.890;2023-04-24T11:02:57;11.80;99.90
26224;DHT22;14820;48.682;8.890;2023-04-24T11:06:15;11.50;99.90
26224;DHT22;14820;48.682;8.890;2023-04-24T11:08:43;11.20;99.90
26224;DHT22;14820;48.682;8.890;2023-04-24T11:11:33;11.10;99.90
26224;DHT22;14820;48.682;8.890;2023-04-24T11:19:17;10.90;99.90
26224;DHT22;14820;48.682;8.890;2023-04-24T11:21:50;10.60;99.90
26224;DHT22;14820;48.682;8.890;2023-04-24T11:27:11;10.60;99.90
26224;DHT22;14820;48.682;8.890;2023-04-24T11:32:42;10.60;99.90
26224;DHT22;14820;48.682;8.890;2023-04-24T11:35:19;10.50;99.90
26224;DHT22;14820;48.682;8.890;2023-04-24T11:37:50;10.50;99.90
26224;DHT22;14820;48.682;8.890;2023-04-24T11:40:18;10.60;99.90
26224;DHT22;14820;48.682;8.890;2023-04-24T11:42:52;10.70;99.90
26224;DHT22;14820;48.682;8.890;2023-04-24T11:45:25;10.80;99.90
26224;DHT22;14820;48.682;8.890;2023-04-24T11:47:51;10.80;99.90
26224;DHT22;14820;48.682;8.890;2023-04-24T11:50:18;10.90;99.90
26224;DHT22;14820;48.682;8.890;2023-04-24T11:52:47;10.80;99.90
26224;DHT22;14820;48.682;8.890;2023-04-24T11:57:49;10.60;99.90
26224;DHT22;14820;48.682;8.890;2023-04-24T12:00:20;10.50;99.90
26224;DHT22;14820;48.682;8.890;2023-04-24T12:02:47;10.50;99.90
26224;DHT22;14820;48.682;8.890;2023-04-24T12:05:23;10.60;99.90
26224;DHT22;14820;48.682;8.890;2023-04-24T12:07:49;10.70;99.90
26224;DHT22;14820;48.682;8.890;2023-04-24T12:10:27;10.70;99.90
26224;DHT22;14820;48.682;8.890;2023-04-24T12:12:58;10.70;99.90
26224;DHT22;14820;48.682;8.890;2023-04-24T12:15:24;10.80;99.90
26224;DHT22;14820;48.682;8.890;2023-04-24T12:17:51;10.90;99.90
26224;DHT22;14820;48.682;8.890;2023-04-24T12:20:24;10.90;99.90
26224;DHT22;14820;48.682;8.890;2023-04-24T12:22:55;10.80;99.90
26224;DHT22;14820;48.682;8.890;2023-04-24T12:25:23;10.80;99.90
26224;DHT22;14820;48.682;8.890;2023-04-24T12:27:54;10.70;99.90
26224;DHT22;14820;48.682;8.890;2023-04-24T12:30:27;10.70;99.90
26224;DHT22;14820;48.682;8.890;2023-04-24T12:32:58;10.70;99.90
26224;DHT22;14820;48.682;8.890;2023-04-24T12:35:28;10.60;99.90
26224;DHT22;14820;48.682;8.890;2023-04-24T12:37:54;10.50;99.90
26224;DHT22;14820;48.682;8.890;2023-04-24T12:40:21;10.50;99.90
26224;DHT22;14820;48.682;8.890;2023-04-24T12:42:51;10.50;99.90
26224;DHT22;14820;48.682;8.890;2023-04-24T12:45:18;10.50;99.90
26224;DHT22;14820;48.682;8.890;2023-04-24T12:47:45;10.40;99.90
26224;DHT22;14820;48.682;8.890;2023-04-24T12:50:12;10.50;99.90
26224;DHT22;14820;48.682;8.890;2023-04-24T12:52:39;10.40;99.90
26224;DHT22;14820;48.682;8.890;2023-04-24T12:55:08;10.40;99.90
26224;DHT22;14820;48.682;8.890;2023-04-24T12:57:35;10.50;99.90
26224;DHT22;14820;48.682;8.890;2023-04-24T13:00:02;10.50;99.90
26224;DHT22;14820;48.682;8.890;2023-04-24T13:02:33;10.50;99.90
26224;DHT22;14820;48.682;8.890;2023-04-24T13:04:59;10.50;99.90
26224;DHT22;14820;48.682;8.890;2023-04-24T13:07:28;10.60;99.90
26224;DHT22;14820;48.682;8.890;2023-04-24T13:09:55;10.60;99.90
26224;DHT22;14820;48.682;8.890;2023-04-24T13:12:24;10.60;99.90
26224;DHT22;14820;48.682;8.890;2023-04-24T13:14:52;10.50;99.90
26224;DHT22;14820;48.682;8.890;2023-04-24T13:17:18;10.40;99.90
26224;DHT22;14820;48.682;8.890;2023-04-24T13:19:50;10.40;99.90
26224;DHT22;14820;48.682;8.890;2023-04-24T13:22:17;10.40;99.90
26224;DHT22;14820;48.682;8.890;2023-04-24T13:24:44;10.40;99.90
26224;DHT22;14820;48.682;8.890;2023-04-24T13:27:11;10.40;99.90
26224;DHT22;14820;48.682;8.890;2023-04-24T13:29:37;10.40;99.90
26224;DHT22;14820;48.682;8.890;2023-04-24T13:32:03;10.30;99.90
26224;DHT22;14820;48.682;8.890;2023-04-24T13:34:29;10.20;99.90
26224;DHT22;14820;48.682;8.890;2023-04-24T13:36:56;10.20;99.90
26224;DHT22;14820;48.682;8.890;2023-04-24T13:39:23;10.30;99.90
26224;DHT22;14820;48.682;8.890;2023-04-24T13:41:49;10.30;99.90
26224;DHT22;14820;48.682;8.890;2023-04-24T13:44:16;10.30;99.90
26224;DHT22;14820;48.682;8.890;2023-04-24T13:46:43;10.30;99.90
26224;DHT22;14820;48.682;8.890;2023-04-24T13:49:13;10.30;99.90
26224;DHT22;14820;48.682;8.890;2023-04-24T13:51:40;10.30;99.90
26224;DHT22;14820;48.682;8.890;2023-04-24T13:54:06;10.30;99.90
26224;DHT22;14820;48.682;8.890;2023-04-24T13:56:31;10.30;99.90
26224;DHT22;14820;48.682;8.890;2023-04-24T13:58:57;10.20;99.90
26224;DHT22;14820;48.682;8.890;2023-04-24T14:01:23;10.20;99.90
26224;DHT22;14820;48.682;8.890;2023-04-24T14:03:53;10.20;99.90
26224;DHT22;14820;48.682;8.890;2023-04-24T14:06:19;10.10;99.90
26224;DHT22;14820;48.682;8.890;2023-04-24T14:08:46;9.90;99.90
26224;DHT22;14820;48.682;8.890;2023-04-24T14:11:12;9.90;99.90
26224;DHT22;14820;48.682;8.890;2023-04-24T14:13:41;10.00;99.90
26224;DHT22;14820;48.682;8.890;2023-04-24T14:16:08;10.10;99.90
26224;DHT22;14820;48.682;8.890;2023-04-24T14:18:34;10.20;99.90
26224;DHT22;14820;48.682;8.890;2023-04-24T14:20:59;10.20;99.90
26224;DHT22;14820;48.682;8.890;2023-04-24T14:23:27;10.20;99.90
26224;DHT22;14820;48.682;8.890;2023-04-24T14:25:52;10.20;99.90
26224;DHT22;14820;48.682;8.890;2023-04-24T14:28:19;10.20;99.90
26224;DHT22;14820;48.682;8.890;2023-04-24T14:30:46;10.30;99.90
26224;DHT22;14820;48.682;8.890;2023-04-24T14:33:12;10.20;99.90
26224;DHT22;14820;48.682;8.890;2023-04-24T14:35:39;10.30;99.90
26224;DHT22;14820;48.682;8.890;2023-04-24T14:38:05;10.40;99.90
26224;DHT22;14820;48.682;8.890;2023-04-24T14:40:31;10.50;99.90
26224;DHT22;14820;48.682;8.890;2023-04-24T14:42:58;10.60;99.90
26224;DHT22;14820;48.682;8.890;2023-04-24T14:45:24;10.60;99.90
26224;DHT22;14820;48.682;8.890;2023-04-24T14:47:51;10.60;99.90
26224;DHT22;14820;48.682;8.890;2023-04-24T14:50:17;10.50;99.90
26224;DHT22;14820;48.682;8.890;2023-04-24T14:52:43;10.50;99.90
26224;DHT22;14820;48.682;8.890;2023-04-24T14:55:09;10.40;99.90
26224;DHT22;14820;48.682;8.890;2023-04-24T14:57:34;10.40;99.90
26224;DHT22;14820;48.682;8.890;2023-04-24T15:00:02;10.30;99.90
26224;DHT22;14820;48.682;8.890;2023-04-24T15:02:29;10.30;99.90
26224;DHT22;14820;48.682;8.890;2023-04-24T15:04:54;10.30;99.90
26224;DHT22;14820;48.682;8.890;2023-04-24T15:07:20;10.30;99.90
26224;DHT22;14820;48.682;8.890;2023-04-24T15:09:46;10.30;99.90
26224;DHT22;14820;48.682;8.890;2023-04-24T15:12:12;10.30;99.90
26224;DHT22;14820;48.682;8.890;2023-04-24T15:14:38;10.30;99.90
26224;DHT22;14820;48.682;8.890;2023-04-24T15:17:04;10.30;99.90
26224;DHT22;14820;48.682;8.890;2023-04-24T15:19:30;10.30;99.90
26224;DHT22;14820;48.682;8.890;2023-04-24T15:21:56;10.40;99.90
26224;DHT22;14820;48.682;8.890;2023-04-24T15:24:21;10.30;99.90
26224;DHT22;14820;48.682;8.890;2023-04-24T15:26:47;10.30;99.90
26224;DHT22;14820;48.682;8.890;2023-04-24T15:29:13;10.30;99.90
26224;DHT22;14820;48.682;8.890;2023-04-24T15:31:38;10.30;99.90
26224;DHT22;14820;48.682;8.890;2023-04-24T15:34:06;10.40;99.90
26224;DHT22;14820;48.682;8.890;2023-04-24T15:36:32;10.40;99.90
26224;DHT22;14820;48.682;8.890;2023-04-24T15:38:58;10.40;99.90
26224;DHT22;14820;48.682;8.890;2023-04-24T15:41:23;10.50;99.90
26224;DHT22;14820;48.682;8.890;2023-04-24T15:43:49;10.50;99.90
26224;DHT22;14820;48.682;8.890;2023-04-24T15:46:18;10.70;99.90
26224;DHT22;14820;48.682;8.890;2023-04-24T15:48:43;11.00;99.90
26224;DHT22;14820;48.682;8.890;2023-04-24T15:51:09;11.10;99.90